createdAt,value
2023-03-21T00:01:16.648Z,8.70
2023-03-21T00:03:46.550Z,8.70
2023-03-21T00:06:15.287Z,8.70
2023-03-21T00:08:44.641Z,8.60
2023-03-21T00:11:15.568Z,8.50
2023-03-21T00:13:43.818Z,8.50
2023-03-21T00:16:18.731Z,8.50
2023-03-21T00:18:55.634Z,8.40
2023-03-21T00:24:16.627Z,8.40
2023-03-21T00:26:46.452Z,8.40
2023-03-21T00:29:14.670Z,8.50
2023-03-21T00:31:42.924Z,8.50
2023-03-21T00:36:44.699Z,8.60
2023-03-21T00:39:14.149Z,8.50
2023-03-21T00:41:43.525Z,8.70
2023-03-21T00:44:15.779Z,8.70
2023-03-21T00:46:54.523Z,8.50
2023-03-21T00:49:33.452Z,8.50
2023-03-21T00:52:14.748Z,8.50
2023-03-21T00:54:45.264Z,8.50
2023-03-21T00:57:13.472Z,8.50
2023-03-21T00:59:42.978Z,8.50
2023-03-21T01:02:14.605Z,8.50
2023-03-21T01:04:43.130Z,8.50
2023-03-21T01:07:11.322Z,8.50
2023-03-21T01:09:40.041Z,8.40
2023-03-21T01:12:08.632Z,8.50
2023-03-21T01:14:36.829Z,8.50
2023-03-21T01:17:06.697Z,8.50
2023-03-21T01:19:50.593Z,8.50
2023-03-21T01:22:19.720Z,8.50
2023-03-21T01:24:55.487Z,8.50
2023-03-21T01:27:28.726Z,8.60
2023-03-21T01:29:57.713Z,8.60
2023-03-21T01:32:27.349Z,8.60
2023-03-21T01:34:55.633Z,8.60
2023-03-21T01:37:26.257Z,8.60
2023-03-21T01:39:54.688Z,8.80
2023-03-21T01:42:22.939Z,8.70
2023-03-21T01:44:59.822Z,8.60
2023-03-21T01:47:29.423Z,8.60
2023-03-21T01:50:02.785Z,8.50
2023-03-21T01:52:39.070Z,8.50
2023-03-21T01:55:13.357Z,8.50
2023-03-21T01:58:02.396Z,8.60
2023-03-21T02:00:34.097Z,8.50
2023-03-21T02:03:16.909Z,8.60
2023-03-21T02:05:56.647Z,8.60
2023-03-21T02:08:36.848Z,8.30
2023-03-21T02:11:08.185Z,8.30
2023-03-21T02:13:37.639Z,8.30
2023-03-21T02:16:16.334Z,8.20
2023-03-21T02:18:57.990Z,8.10
2023-03-21T02:22:15.956Z,8.10
2023-03-21T02:25:28.476Z,8.20
2023-03-21T02:28:04.036Z,8.10
2023-03-21T02:31:23.622Z,8.10
2023-03-21T02:34:43.829Z,7.90
2023-03-21T02:37:28.840Z,7.90
2023-03-21T02:40:13.479Z,8.00
2023-03-21T02:43:01.422Z,8.00
2023-03-21T02:45:40.658Z,7.90
2023-03-21T02:48:27.736Z,8.00
2023-03-21T02:51:02.022Z,7.90
2023-03-21T02:53:39.038Z,7.90
2023-03-21T02:56:10.638Z,7.90
2023-03-21T02:58:42.046Z,7.90
2023-03-21T03:01:10.742Z,7.90
2023-03-21T03:03:39.570Z,7.80
2023-03-21T03:06:19.658Z,7.80
2023-03-21T03:09:19.540Z,7.80
2023-03-21T03:11:56.408Z,7.80
2023-03-21T03:15:03.199Z,7.90
2023-03-21T03:17:50.769Z,7.90
2023-03-21T03:20:45.419Z,7.90
2023-03-21T03:23:26.296Z,7.90
2023-03-21T03:26:06.062Z,7.90
2023-03-21T03:28:40.321Z,7.90
2023-03-21T03:31:14.963Z,7.90
2023-03-21T03:33:49.460Z,7.80
2023-03-21T03:36:31.079Z,7.80
2023-03-21T03:39:05.443Z,7.70
2023-03-21T03:42:05.513Z,7.70
2023-03-21T03:44:30.986Z,7.80
2023-03-21T03:47:06.110Z,7.80
2023-03-21T03:49:42.990Z,7.80
2023-03-21T03:52:19.764Z,7.70
2023-03-21T03:54:52.011Z,7.80
2023-03-21T03:57:22.852Z,7.80
2023-03-21T03:59:51.101Z,7.70
2023-03-21T04:02:20.156Z,7.60
2023-03-21T04:04:53.340Z,7.70
2023-03-21T04:07:22.455Z,7.60
2023-03-21T04:09:50.630Z,7.60
2023-03-21T04:12:19.268Z,7.50
2023-03-21T04:14:48.749Z,7.40
2023-03-21T04:17:17.666Z,7.50
2023-03-21T04:19:46.603Z,7.50
2023-03-21T04:22:15.485Z,7.50
2023-03-21T04:24:44.031Z,7.50
2023-03-21T04:27:13.609Z,7.40
2023-03-21T04:29:42.049Z,7.40
2023-03-21T04:32:16.371Z,7.50
2023-03-21T04:34:50.149Z,7.50
2023-03-21T04:37:19.274Z,7.50
2023-03-21T04:39:48.131Z,7.40
2023-03-21T04:42:18.411Z,7.40
2023-03-21T04:44:46.995Z,7.40
2023-03-21T04:47:20.179Z,7.40
2023-03-21T04:49:48.997Z,7.40
2023-03-21T04:52:17.599Z,7.40
2023-03-21T04:54:45.799Z,7.40
2023-03-21T04:57:14.057Z,7.40
2023-03-21T04:59:42.592Z,7.40
2023-03-21T05:02:10.771Z,7.50
2023-03-21T05:04:40.577Z,7.40
2023-03-21T05:07:09.420Z,7.40
2023-03-21T05:09:37.624Z,7.50
2023-03-21T05:12:06.382Z,7.40
2023-03-21T05:14:34.858Z,7.50
2023-03-21T05:17:05.199Z,7.50
2023-03-21T05:19:36.123Z,7.40
2023-03-21T05:22:09.256Z,7.40
2023-03-21T05:24:39.156Z,7.40
2023-03-21T05:27:07.378Z,7.50
2023-03-21T05:29:35.953Z,7.40
2023-03-21T05:32:04.391Z,7.50
2023-03-21T05:34:33.051Z,7.40
2023-03-21T05:37:01.212Z,7.30
2023-03-21T05:39:30.748Z,7.50
2023-03-21T05:41:58.901Z,7.40
2023-03-21T05:44:27.084Z,7.40
2023-03-21T05:46:55.339Z,7.40
2023-03-21T05:49:24.510Z,7.40
2023-03-21T05:51:52.830Z,7.50
2023-03-21T05:54:21.004Z,7.50
2023-03-21T05:56:50.634Z,7.60
2023-03-21T05:59:18.845Z,7.60
2023-03-21T06:01:47.034Z,7.60
2023-03-21T06:04:15.563Z,7.50
2023-03-21T06:06:43.830Z,7.60
2023-03-21T06:09:13.092Z,7.50
2023-03-21T06:11:52.785Z,7.60
2023-03-21T06:14:22.512Z,7.50
2023-03-21T06:16:51.055Z,7.50
2023-03-21T06:19:19.259Z,7.50
2023-03-21T06:21:47.744Z,7.50
2023-03-21T06:24:17.726Z,7.60
2023-03-21T06:26:46.382Z,7.70
2023-03-21T06:29:16.542Z,7.70
2023-03-21T06:31:44.843Z,7.60
2023-03-21T06:34:13.441Z,7.70
2023-03-21T06:39:10.583Z,7.60
2023-03-21T06:41:39.433Z,7.70
2023-03-21T06:44:07.819Z,7.70
2023-03-21T06:46:37.875Z,7.80
2023-03-21T06:49:06.298Z,8.00
2023-03-21T06:51:34.570Z,8.00
2023-03-21T06:54:03.083Z,8.10
2023-03-21T06:56:31.555Z,8.00
2023-03-21T06:58:59.989Z,8.00
2023-03-21T07:01:30.867Z,8.10
2023-03-21T07:04:00.551Z,8.20
2023-03-21T07:06:29.218Z,8.20
2023-03-21T07:08:58.363Z,8.10
2023-03-21T07:11:27.352Z,8.30
2023-03-21T07:13:56.137Z,8.50
2023-03-21T07:16:25.014Z,8.40
2023-03-21T07:18:53.409Z,8.60
2023-03-21T07:21:23.516Z,8.60
2023-03-21T07:23:51.928Z,8.80
2023-03-21T07:26:20.728Z,8.90
2023-03-21T07:28:49.024Z,8.80
2023-03-21T07:31:20.112Z,9.00
2023-03-21T07:33:48.376Z,9.20
2023-03-21T07:36:17.795Z,9.00
2023-03-21T07:38:47.871Z,9.10
2023-03-21T07:43:49.368Z,8.80
2023-03-21T07:46:17.939Z,9.00
2023-03-21T07:48:46.361Z,9.30
2023-03-21T07:51:14.649Z,9.60
2023-03-21T07:53:48.614Z,9.80
2023-03-21T07:56:17.345Z,9.70
2023-03-21T07:58:45.640Z,9.50
2023-03-21T08:01:14.030Z,9.50
2023-03-21T08:03:43.470Z,9.60
2023-03-21T08:06:12.611Z,9.90
2023-03-21T08:08:41.099Z,9.90
2023-03-21T08:11:13.037Z,9.70
2023-03-21T08:13:41.658Z,9.90
2023-03-21T08:16:10.884Z,10.20
2023-03-21T08:18:39.212Z,10.40
2023-03-21T08:21:09.705Z,10.60
2023-03-21T08:23:38.170Z,10.70
2023-03-21T08:26:07.708Z,10.80
2023-03-21T08:28:39.424Z,10.70
2023-03-21T08:31:09.810Z,10.80
2023-03-21T08:33:38.525Z,10.80
2023-03-21T08:36:08.466Z,11.00
2023-03-21T08:38:37.247Z,11.20
2023-03-21T08:41:05.810Z,11.00
2023-03-21T08:43:34.356Z,10.60
2023-03-21T08:46:04.618Z,10.60
2023-03-21T08:48:33.101Z,10.40
2023-03-21T08:51:02.562Z,10.30
2023-03-21T08:53:30.972Z,10.40
2023-03-21T08:55:59.256Z,10.40
2023-03-21T08:58:28.380Z,10.70
2023-03-21T09:00:56.752Z,10.50
2023-03-21T09:03:27.341Z,10.50
2023-03-21T09:05:55.976Z,10.50
2023-03-21T09:08:24.525Z,10.50
2023-03-21T09:10:56.266Z,10.50
2023-03-21T09:13:25.186Z,10.80
2023-03-21T09:15:54.199Z,11.10
2023-03-21T09:18:38.618Z,11.40
2023-03-21T09:21:14.595Z,11.20
2023-03-21T09:23:44.897Z,10.80
2023-03-21T09:26:13.983Z,11.20
2023-03-21T09:28:42.865Z,11.30
2023-03-21T09:31:12.210Z,11.60
2023-03-21T09:33:41.360Z,11.60
2023-03-21T09:36:15.639Z,11.40
2023-03-21T09:38:46.027Z,11.50
2023-03-21T09:41:43.805Z,11.50
2023-03-21T09:44:28.665Z,11.70
2023-03-21T09:47:11.218Z,11.50
2023-03-21T09:49:49.085Z,11.30
2023-03-21T09:52:25.612Z,11.60
2023-03-21T09:54:55.620Z,12.00
2023-03-21T09:57:34.271Z,12.10
2023-03-21T10:00:12.111Z,11.90
2023-03-21T10:02:47.032Z,12.00
2023-03-21T10:05:22.627Z,11.90
2023-03-21T10:08:04.750Z,11.90
2023-03-21T10:10:38.733Z,12.10
2023-03-21T10:13:16.824Z,12.50
2023-03-21T10:15:45.300Z,12.50
2023-03-21T10:18:22.227Z,12.00
2023-03-21T10:20:52.485Z,12.20
2023-03-21T10:23:28.441Z,12.40
2023-03-21T10:26:00.750Z,12.40
2023-03-21T10:28:42.759Z,12.50
2023-03-21T10:31:25.031Z,12.60
2023-03-21T10:33:56.934Z,11.50
2023-03-21T10:36:30.031Z,11.50
2023-03-21T10:39:06.017Z,11.90
2023-03-21T10:41:35.581Z,12.00
2023-03-21T10:44:11.860Z,12.10
2023-03-21T10:46:40.410Z,11.90
2023-03-21T10:49:09.633Z,12.10
2023-03-21T10:51:41.139Z,12.30
2023-03-21T10:54:16.720Z,12.10
2023-03-21T10:56:55.904Z,12.40
2023-03-21T10:59:27.086Z,12.60
2023-03-21T11:01:58.257Z,12.80
2023-03-21T11:04:30.450Z,12.60
2023-03-21T11:07:07.011Z,12.50
2023-03-21T11:09:52.521Z,12.10
2023-03-21T11:12:33.680Z,11.90
2023-03-21T11:15:28.811Z,12.20
2023-03-21T11:17:57.126Z,12.40
2023-03-21T11:20:25.624Z,12.60
2023-03-21T11:22:57.060Z,12.60
2023-03-21T11:25:38.075Z,12.60
2023-03-21T11:28:13.313Z,12.80
2023-03-21T11:30:54.150Z,12.70
2023-03-21T11:33:27.740Z,12.90
2023-03-21T11:36:05.508Z,13.10
2023-03-21T11:38:38.381Z,13.00
2023-03-21T11:41:09.161Z,12.60
2023-03-21T11:43:39.358Z,12.20
2023-03-21T11:46:11.070Z,12.40
2023-03-21T11:48:43.458Z,12.40
2023-03-21T11:51:30.344Z,12.20
2023-03-21T11:54:11.158Z,12.30
2023-03-21T11:56:47.827Z,12.20
2023-03-21T11:59:34.490Z,12.20
2023-03-21T12:02:26.563Z,12.30
2023-03-21T12:05:04.239Z,12.20
2023-03-21T12:07:53.889Z,12.30
2023-03-21T12:10:44.301Z,11.90
2023-03-21T12:13:38.954Z,11.90
2023-03-21T12:16:27.940Z,12.60
2023-03-21T12:19:13.908Z,13.10
2023-03-21T12:21:58.775Z,13.30
2023-03-21T12:24:34.611Z,13.20
2023-03-21T12:27:17.104Z,13.60
2023-03-21T12:30:05.037Z,13.70
2023-03-21T12:32:57.874Z,13.10
2023-03-21T12:35:52.431Z,13.30
2023-03-21T12:38:33.761Z,13.60
2023-03-21T12:41:34.131Z,13.60
2023-03-21T12:44:06.708Z,13.40
2023-03-21T12:46:45.811Z,13.30
2023-03-21T12:49:24.470Z,13.10
2023-03-21T12:52:01.104Z,13.20
2023-03-21T12:54:38.036Z,13.10
2023-03-21T12:57:14.782Z,13.20
2023-03-21T12:59:56.736Z,13.10
2023-03-21T13:02:34.045Z,13.10
2023-03-21T13:05:14.056Z,13.20
2023-03-21T13:07:48.530Z,13.00
2023-03-21T13:10:21.845Z,13.00
2023-03-21T13:13:04.935Z,13.30
2023-03-21T13:16:14.262Z,12.70
2023-03-21T13:19:03.863Z,12.40
2023-03-21T13:21:53.498Z,12.20
2023-03-21T13:24:33.547Z,12.40
2023-03-21T13:27:07.439Z,12.40
2023-03-21T13:29:47.357Z,12.60
2023-03-21T13:32:27.416Z,12.80
2023-03-21T13:34:59.979Z,12.90
2023-03-21T13:37:34.594Z,13.00
2023-03-21T13:40:12.733Z,13.30
2023-03-21T13:42:47.010Z,13.80
2023-03-21T13:45:31.739Z,13.90
2023-03-21T13:48:02.064Z,13.90
2023-03-21T13:50:37.653Z,13.80
2023-03-21T13:53:27.319Z,13.60
2023-03-21T13:56:21.924Z,13.50
2023-03-21T13:58:59.414Z,13.50
2023-03-21T14:01:41.427Z,13.50
2023-03-21T14:04:18.600Z,13.50
2023-03-21T14:06:55.563Z,13.40
2023-03-21T14:09:32.138Z,13.20
2023-03-21T14:12:07.461Z,13.30
2023-03-21T14:14:42.986Z,13.30
2023-03-21T14:17:15.521Z,13.30
2023-03-21T14:19:43.819Z,13.50
2023-03-21T14:22:15.650Z,13.40
2023-03-21T14:24:50.777Z,13.30
2023-03-21T14:27:21.367Z,13.10
2023-03-21T14:29:53.347Z,13.00
2023-03-21T14:32:26.463Z,13.00
2023-03-21T14:34:57.068Z,12.80
2023-03-21T14:37:33.047Z,12.70
2023-03-21T14:40:09.044Z,12.90
2023-03-21T14:42:39.008Z,12.90
2023-03-21T14:45:20.921Z,12.70
2023-03-21T14:48:01.704Z,12.60
2023-03-21T14:50:39.929Z,12.70
2023-03-21T14:53:16.371Z,12.70
2023-03-21T14:55:48.846Z,12.60
2023-03-21T14:58:19.230Z,12.70
2023-03-21T15:00:52.009Z,12.60
2023-03-21T15:03:24.520Z,12.70
2023-03-21T15:05:52.976Z,12.60
2023-03-21T15:08:26.038Z,12.60
2023-03-21T15:11:06.911Z,12.60
2023-03-21T15:13:41.664Z,12.60
2023-03-21T15:16:14.711Z,12.60
2023-03-21T15:18:45.399Z,12.50
2023-03-21T15:21:22.130Z,12.50
2023-03-21T15:23:57.008Z,12.80
2023-03-21T15:26:27.872Z,12.80
2023-03-21T15:29:00.534Z,12.80
2023-03-21T15:31:36.091Z,13.20
2023-03-21T15:34:06.243Z,12.90
2023-03-21T15:36:37.775Z,12.80
2023-03-21T15:39:13.481Z,12.90
2023-03-21T15:41:43.239Z,12.70
2023-03-21T15:44:17.565Z,13.10
2023-03-21T15:46:48.902Z,13.00
2023-03-21T15:49:25.732Z,12.90
2023-03-21T15:51:58.794Z,12.70
2023-03-21T15:54:37.011Z,12.60
2023-03-21T15:57:21.491Z,12.60
2023-03-21T15:59:51.016Z,12.60
2023-03-21T16:02:23.952Z,12.70
2023-03-21T16:05:02.011Z,12.60
2023-03-21T16:07:34.387Z,12.50
2023-03-21T16:10:20.030Z,12.50
2023-03-21T16:12:48.566Z,12.40
2023-03-21T16:15:17.090Z,12.40
2023-03-21T16:17:54.001Z,12.50
2023-03-21T16:20:27.672Z,12.60
2023-03-21T16:22:56.571Z,12.50
2023-03-21T16:25:26.836Z,12.30
2023-03-21T16:27:56.187Z,12.30
2023-03-21T16:30:27.645Z,12.50
2023-03-21T16:32:56.936Z,12.30
2023-03-21T16:35:26.430Z,12.30
2023-03-21T16:37:58.305Z,12.10
2023-03-21T16:40:35.305Z,12.00
2023-03-21T16:43:04.559Z,11.90
2023-03-21T16:45:33.138Z,12.10
2023-03-21T16:48:01.853Z,12.00
2023-03-21T16:50:34.832Z,12.00
2023-03-21T16:53:04.004Z,11.80
2023-03-21T16:55:34.846Z,11.90
2023-03-21T16:58:03.333Z,12.00
2023-03-21T17:00:32.345Z,12.00
2023-03-21T17:03:03.998Z,12.30
2023-03-21T17:05:32.258Z,12.00
2023-03-21T17:08:02.325Z,12.20
2023-03-21T17:10:34.320Z,12.20
2023-03-21T17:13:02.598Z,11.80
2023-03-21T17:15:30.778Z,11.70
2023-03-21T17:17:59.036Z,11.80
2023-03-21T17:20:32.936Z,11.90
2023-03-21T17:23:02.047Z,12.20
2023-03-21T17:25:30.779Z,12.20
2023-03-21T17:28:00.458Z,11.90
2023-03-21T17:30:31.688Z,11.90
2023-03-21T17:33:00.847Z,11.70
2023-03-21T17:35:30.139Z,11.50
2023-03-21T17:37:59.477Z,11.50
2023-03-21T17:40:30.836Z,11.60
2023-03-21T17:43:01.854Z,11.60
2023-03-21T17:45:30.318Z,11.60
2023-03-21T17:47:58.802Z,11.50
2023-03-21T17:50:33.988Z,11.50
2023-03-21T17:53:02.206Z,11.70
2023-03-21T17:55:31.577Z,11.70
2023-03-21T17:58:01.731Z,11.70
2023-03-21T18:00:32.163Z,11.50
2023-03-21T18:03:00.695Z,11.50
2023-03-21T18:05:29.439Z,11.50
2023-03-21T18:08:13.291Z,11.40
2023-03-21T18:10:43.034Z,11.50
2023-03-21T18:13:12.807Z,11.40
2023-03-21T18:15:44.154Z,11.30
2023-03-21T18:18:16.230Z,11.30
2023-03-21T18:20:52.156Z,11.40
2023-03-21T18:23:21.880Z,11.30
2023-03-21T18:25:52.319Z,11.20
2023-03-21T18:28:23.051Z,11.30
2023-03-21T18:31:08.223Z,11.10
2023-03-21T18:33:41.179Z,11.10
2023-03-21T18:36:13.502Z,11.20
2023-03-21T18:38:42.620Z,11.20
2023-03-21T18:41:11.701Z,11.20
2023-03-21T18:44:00.740Z,11.10
2023-03-21T18:46:31.540Z,11.10
2023-03-21T18:49:20.005Z,11.20
2023-03-21T18:51:47.987Z,11.00
2023-03-21T18:54:17.403Z,11.00
2023-03-21T18:59:40.252Z,11.20
2023-03-21T19:02:08.936Z,11.20
2023-03-21T19:04:38.330Z,11.20
2023-03-21T19:07:08.037Z,11.00
2023-03-21T19:09:58.061Z,11.10
2023-03-21T19:12:25.166Z,11.20
2023-03-21T19:14:55.640Z,11.20
2023-03-21T19:20:15.341Z,11.20
2023-03-21T19:22:44.264Z,11.00
2023-03-21T19:25:15.450Z,11.00
2023-03-21T19:27:44.619Z,10.90
2023-03-21T19:30:16.147Z,10.90
2023-03-21T19:32:45.953Z,10.90
2023-03-21T19:35:14.459Z,10.90
2023-03-21T19:37:42.806Z,11.20
2023-03-21T19:40:12.195Z,11.10
2023-03-21T19:42:42.108Z,10.90
2023-03-21T19:45:13.266Z,10.90
2023-03-21T19:47:41.509Z,10.80
2023-03-21T19:53:00.422Z,10.90
2023-03-21T19:55:28.676Z,10.70
2023-03-21T19:57:56.965Z,10.80
2023-03-21T20:00:26.746Z,10.70
2023-03-21T20:02:55.379Z,10.80
2023-03-21T20:05:25.508Z,10.70
2023-03-21T20:07:55.358Z,10.70
2023-03-21T20:10:23.924Z,10.70
2023-03-21T20:12:52.151Z,10.70
2023-03-21T20:15:22.015Z,10.80
2023-03-21T20:17:54.007Z,10.70
2023-03-21T20:20:23.928Z,10.70
2023-03-21T20:23:06.336Z,10.90
2023-03-21T20:25:36.379Z,10.70
2023-03-21T20:28:25.751Z,10.80
2023-03-21T20:30:58.552Z,10.70
2023-03-21T20:33:29.565Z,10.70
2023-03-21T20:38:51.907Z,10.70
2023-03-21T20:41:20.688Z,10.50
2023-03-21T20:46:37.959Z,10.70
2023-03-21T20:49:07.648Z,10.70
2023-03-21T20:54:24.492Z,10.70
2023-03-21T20:56:52.739Z,10.70
2023-03-21T20:59:27.349Z,10.60
2023-03-21T21:01:57.270Z,10.80
2023-03-21T21:07:18.623Z,10.80
2023-03-21T21:09:48.082Z,10.90
2023-03-21T21:12:19.184Z,10.90
2023-03-21T21:14:48.170Z,10.80
2023-03-21T21:17:34.061Z,11.00
2023-03-21T21:20:16.266Z,11.10
2023-03-21T21:22:58.450Z,11.00
2023-03-21T21:25:27.640Z,11.10
2023-03-21T21:27:55.806Z,11.00
2023-03-21T21:30:24.227Z,11.00
2023-03-21T21:32:52.541Z,10.90
2023-03-21T21:35:22.670Z,10.80
2023-03-21T21:37:51.884Z,10.70
2023-03-21T21:40:23.097Z,10.60
2023-03-21T21:42:51.370Z,10.70
2023-03-21T21:45:20.139Z,10.70
2023-03-21T21:47:48.453Z,10.60
2023-03-21T21:50:16.695Z,10.70
2023-03-21T21:52:52.624Z,10.80
2023-03-21T21:55:21.199Z,10.80
2023-03-21T21:57:50.985Z,10.60
2023-03-21T22:00:21.358Z,10.60
2023-03-21T22:02:49.726Z,10.60
2023-03-21T22:05:19.402Z,10.60
2023-03-21T22:07:51.886Z,10.50
2023-03-21T22:10:21.437Z,10.40
2023-03-21T22:12:50.026Z,10.30
2023-03-21T22:15:19.132Z,10.30
2023-03-21T22:17:47.740Z,10.10
2023-03-21T22:20:18.759Z,10.10
2023-03-21T22:22:49.199Z,10.00
2023-03-21T22:25:18.859Z,10.20
2023-03-21T22:27:47.159Z,10.10
2023-03-21T22:30:18.615Z,10.00
2023-03-21T22:33:06.259Z,9.90
2023-03-21T22:35:36.707Z,9.90
2023-03-21T22:38:06.471Z,9.90
2023-03-21T22:40:34.743Z,9.90
2023-03-21T22:43:02.990Z,9.90
2023-03-21T22:45:31.195Z,10.10
2023-03-21T22:47:59.890Z,10.10
2023-03-21T22:50:28.833Z,10.20
2023-03-21T22:52:57.043Z,10.10
2023-03-21T22:55:26.676Z,10.10
2023-03-21T22:57:54.892Z,10.10
2023-03-21T23:00:23.087Z,10.10
2023-03-21T23:02:51.323Z,10.10
2023-03-21T23:05:19.903Z,10.10
2023-03-21T23:07:48.108Z,10.30
2023-03-21T23:10:16.390Z,10.20
2023-03-21T23:12:46.096Z,10.20
2023-03-21T23:15:14.367Z,10.10
2023-03-21T23:17:44.063Z,10.20
2023-03-21T23:20:13.056Z,10.10
2023-03-21T23:22:41.781Z,10.10
2023-03-21T23:25:11.959Z,10.10
2023-03-21T23:27:40.235Z,10.00
2023-03-21T23:30:10.862Z,10.00
2023-03-21T23:32:39.092Z,9.90
2023-03-21T23:35:08.994Z,10.00
2023-03-21T23:37:37.247Z,9.90
2023-03-21T23:40:07.217Z,10.00
2023-03-21T23:42:36.041Z,10.00
2023-03-21T23:45:04.799Z,9.90
2023-03-21T23:47:34.582Z,9.80
2023-03-21T23:50:06.803Z,9.80
2023-03-21T23:52:35.014Z,9.80
2023-03-21T23:55:03.217Z,9.80
2023-03-21T23:57:31.916Z,9.70
